createdAt,value
2022-09-27T00:02:26.201Z,0.30
2022-09-27T00:04:55.873Z,0.30
2022-09-27T00:07:25.573Z,0.40
2022-09-27T00:09:53.954Z,0.73
2022-09-27T00:12:22.253Z,0.60
2022-09-27T00:14:50.625Z,0.40
2022-09-27T00:17:19.933Z,0.43
2022-09-27T00:19:48.353Z,0.40
2022-09-27T00:22:16.662Z,0.40
2022-09-27T00:24:46.325Z,0.40
2022-09-27T00:27:14.642Z,0.30
2022-09-27T00:29:43.153Z,0.50
2022-09-27T00:32:11.546Z,0.60
2022-09-27T00:34:40.618Z,0.27
2022-09-27T00:37:09.134Z,0.30
2022-09-27T00:39:38.353Z,0.30
2022-09-27T00:42:11.374Z,0.20
2022-09-27T00:45:08.661Z,0.20
2022-09-27T00:47:44.449Z,0.20
2022-09-27T00:50:23.218Z,0.30
2022-09-27T00:53:00.770Z,0.13
2022-09-27T00:55:34.022Z,0.17
2022-09-27T00:58:05.693Z,0.10
2022-09-27T01:00:34.462Z,0.30
2022-09-27T01:03:07.188Z,0.10
2022-09-27T01:05:35.981Z,0.40
2022-09-27T01:08:04.329Z,0.20
2022-09-27T01:10:42.167Z,0.10
2022-09-27T01:13:21.058Z,0.10
2022-09-27T01:15:59.116Z,0.00
2022-09-27T01:18:35.861Z,0.10
2022-09-27T01:21:27.418Z,0.10
2022-09-27T01:24:28.868Z,0.20
2022-09-27T01:27:35.055Z,0.10
2022-09-27T01:30:19.721Z,0.20
2022-09-27T01:32:59.667Z,0.20
2022-09-27T01:35:35.746Z,0.20
2022-09-27T01:38:13.592Z,0.10
2022-09-27T01:40:50.585Z,0.10
2022-09-27T01:43:46.870Z,0.30
2022-09-27T01:46:23.374Z,0.10
2022-09-27T01:49:13.666Z,0.20
2022-09-27T01:51:47.098Z,0.30
2022-09-27T01:54:20.607Z,0.20
2022-09-27T01:56:55.256Z,0.30
2022-09-27T01:59:33.573Z,0.20
2022-09-27T02:02:19.953Z,0.20
2022-09-27T02:05:21.086Z,0.30
2022-09-27T02:07:59.291Z,0.20
2022-09-27T02:10:32.677Z,0.30
2022-09-27T02:13:07.800Z,0.20
2022-09-27T02:15:49.626Z,0.10
2022-09-27T02:18:37.559Z,0.20
2022-09-27T02:21:09.014Z,0.20
2022-09-27T02:23:42.866Z,0.30
2022-09-27T02:26:19.246Z,0.10
2022-09-27T02:28:53.061Z,0.10
2022-09-27T02:31:28.889Z,0.10
2022-09-27T02:34:04.068Z,0.20
2022-09-27T02:36:33.221Z,0.37
2022-09-27T02:39:01.888Z,0.13
2022-09-27T02:41:32.337Z,0.20
2022-09-27T02:44:05.644Z,0.10
2022-09-27T02:46:54.897Z,0.10
2022-09-27T02:49:43.522Z,0.10
2022-09-27T02:52:40.657Z,0.00
2022-09-27T02:55:17.588Z,0.00
2022-09-27T02:58:12.196Z,0.10
2022-09-27T03:01:08.121Z,0.00
2022-09-27T03:03:53.495Z,0.10
2022-09-27T03:06:25.203Z,0.10
2022-09-27T03:08:54.007Z,0.10
2022-09-27T03:11:22.434Z,0.00
2022-09-27T03:14:08.028Z,0.10
2022-09-27T03:16:40.374Z,0.07
2022-09-27T03:19:44.180Z,0.00
2022-09-27T03:22:28.868Z,0.10
2022-09-27T03:24:57.640Z,0.00
2022-09-27T03:27:26.074Z,0.00
2022-09-27T03:29:54.473Z,0.20
2022-09-27T03:32:23.018Z,0.10
2022-09-27T03:35:11.522Z,0.10
2022-09-27T03:37:42.106Z,0.20
2022-09-27T03:40:11.757Z,0.30
2022-09-27T03:42:40.415Z,0.60
2022-09-27T03:45:09.779Z,0.83
2022-09-27T03:47:41.920Z,0.50
2022-09-27T03:50:12.873Z,0.40
2022-09-27T03:52:44.126Z,0.47
2022-09-27T03:55:13.465Z,0.40
2022-09-27T03:57:46.712Z,0.50
2022-09-27T04:00:17.318Z,0.50
2022-09-27T04:02:46.205Z,0.43
2022-09-27T04:05:27.339Z,0.70
2022-09-27T04:08:01.540Z,0.70
2022-09-27T04:10:32.545Z,0.60
2022-09-27T04:13:00.984Z,0.60
2022-09-27T04:15:33.631Z,0.60
2022-09-27T04:18:22.161Z,0.47
2022-09-27T04:20:50.482Z,0.60
2022-09-27T04:23:21.512Z,0.70
2022-09-27T04:25:53.424Z,0.50
2022-09-27T04:28:42.076Z,0.50
2022-09-27T04:31:10.525Z,0.57
2022-09-27T04:34:10.915Z,0.50
2022-09-27T04:36:38.251Z,0.60
2022-09-27T04:39:12.494Z,0.70
2022-09-27T04:41:45.764Z,0.47
2022-09-27T04:44:15.653Z,0.50
2022-09-27T04:46:48.988Z,0.40
2022-09-27T04:49:18.017Z,0.30
2022-09-27T04:51:47.214Z,0.60
2022-09-27T04:54:17.462Z,0.50
2022-09-27T04:56:57.388Z,0.60
2022-09-27T04:59:26.209Z,0.30
2022-09-27T05:01:55.047Z,0.50
2022-09-27T05:04:48.748Z,0.57
2022-09-27T05:07:20.504Z,0.50
2022-09-27T05:09:56.985Z,0.67
2022-09-27T05:12:26.953Z,0.43
2022-09-27T05:14:59.614Z,0.50
2022-09-27T05:17:34.316Z,0.33
2022-09-27T05:20:21.818Z,0.63
2022-09-27T05:22:56.164Z,0.40
2022-09-27T05:25:27.125Z,0.40
2022-09-27T05:27:55.609Z,0.60
2022-09-27T05:30:24.038Z,0.90
2022-09-27T05:32:56.282Z,0.60
2022-09-27T05:35:45.802Z,0.40
2022-09-27T05:38:14.861Z,0.50
2022-09-27T05:40:50.452Z,0.50
2022-09-27T05:43:20.152Z,0.60
2022-09-27T05:45:48.829Z,0.70
2022-09-27T05:48:20.289Z,0.50
2022-09-27T05:50:56.747Z,0.37
2022-09-27T05:53:25.070Z,0.80
2022-09-27T05:55:55.319Z,0.50
2022-09-27T05:58:32.708Z,0.50
2022-09-27T06:01:14.319Z,0.60
2022-09-27T06:04:11.642Z,0.50
2022-09-27T06:07:06.400Z,0.70
2022-09-27T06:09:35.017Z,0.80
2022-09-27T06:12:11.365Z,0.67
2022-09-27T06:14:41.275Z,0.53
2022-09-27T06:17:30.345Z,0.70
2022-09-27T06:20:01.151Z,0.40
2022-09-27T06:22:29.753Z,0.40
2022-09-27T06:25:04.085Z,0.60
2022-09-27T06:27:38.086Z,0.50
2022-09-27T06:30:11.716Z,0.60
2022-09-27T06:32:57.589Z,0.70
2022-09-27T06:35:41.281Z,0.60
2022-09-27T06:38:13.191Z,0.87
2022-09-27T06:40:49.507Z,0.43
2022-09-27T06:43:34.198Z,0.90
2022-09-27T06:46:15.052Z,0.33
2022-09-27T06:49:06.406Z,0.60
2022-09-27T06:51:39.468Z,0.87
2022-09-27T06:54:15.915Z,0.60
2022-09-27T06:56:56.178Z,1.03
2022-09-27T06:59:49.524Z,0.53
2022-09-27T07:02:36.670Z,0.60
2022-09-27T07:05:32.418Z,0.70
2022-09-27T07:08:11.997Z,0.77
2022-09-27T07:10:41.593Z,0.73
2022-09-27T07:13:12.279Z,0.90
2022-09-27T07:15:43.490Z,0.60
2022-09-27T07:18:15.878Z,0.70
2022-09-27T07:20:44.216Z,0.80
2022-09-27T07:23:13.184Z,0.77
2022-09-27T07:25:41.573Z,0.77
2022-09-27T07:28:18.463Z,0.60
2022-09-27T07:30:56.842Z,0.67
2022-09-27T07:33:25.615Z,0.80
2022-09-27T07:35:54.034Z,1.00
2022-09-27T07:38:22.495Z,0.60
2022-09-27T07:40:51.715Z,0.70
2022-09-27T07:43:20.811Z,0.60
2022-09-27T07:45:51.132Z,0.57
2022-09-27T07:48:54.942Z,0.70
2022-09-27T07:51:41.737Z,0.60
2022-09-27T07:54:28.223Z,0.70
2022-09-27T07:57:08.705Z,0.97
2022-09-27T07:59:47.078Z,0.70
2022-09-27T08:02:19.696Z,0.73
2022-09-27T08:04:49.602Z,0.67
2022-09-27T08:07:18.652Z,0.70
2022-09-27T08:09:50.908Z,0.73
2022-09-27T08:12:21.601Z,0.80
2022-09-27T08:14:51.346Z,0.90
2022-09-27T08:17:21.092Z,0.60
2022-09-27T08:20:10.417Z,0.80
2022-09-27T08:23:07.224Z,0.70
2022-09-27T08:25:43.596Z,0.57
2022-09-27T08:28:28.438Z,0.87
2022-09-27T08:31:02.664Z,0.57
2022-09-27T08:33:34.912Z,0.70
2022-09-27T08:36:05.607Z,0.60
2022-09-27T08:38:33.924Z,0.80
2022-09-27T08:41:09.477Z,0.60
2022-09-27T08:43:47.549Z,0.50
2022-09-27T08:46:27.120Z,0.60
2022-09-27T08:49:07.092Z,0.60
2022-09-27T08:51:37.636Z,0.80
2022-09-27T08:54:09.406Z,0.93
2022-09-27T08:56:38.906Z,0.70
2022-09-27T08:59:14.826Z,0.50
2022-09-27T09:01:44.314Z,0.80
2022-09-27T09:04:29.831Z,0.90
2022-09-27T09:07:09.790Z,1.07
2022-09-27T09:09:45.394Z,0.50
2022-09-27T09:12:48.192Z,0.50
2022-09-27T09:15:55.404Z,0.60
2022-09-27T09:18:40.389Z,0.73
2022-09-27T09:21:27.806Z,0.70
2022-09-27T09:24:19.008Z,0.70
2022-09-27T09:26:55.245Z,0.53
2022-09-27T09:29:37.794Z,0.63
2022-09-27T09:32:21.332Z,0.53
2022-09-27T09:34:55.945Z,0.93
2022-09-27T09:37:36.627Z,0.60
2022-09-27T09:40:17.643Z,0.67
2022-09-27T09:42:52.221Z,0.47
2022-09-27T09:45:26.331Z,0.43
2022-09-27T09:48:01.997Z,0.77
2022-09-27T09:50:35.349Z,0.40
2022-09-27T09:53:15.260Z,0.73
2022-09-27T09:55:49.710Z,0.87
2022-09-27T09:58:25.258Z,0.63
2022-09-27T10:01:02.587Z,1.00
2022-09-27T10:03:31.034Z,0.70
2022-09-27T10:05:59.321Z,0.50
2022-09-27T10:08:29.154Z,0.70
2022-09-27T10:11:23.417Z,0.70
2022-09-27T10:13:59.553Z,0.70
2022-09-27T10:16:29.285Z,0.70
2022-09-27T10:19:04.099Z,0.93
2022-09-27T10:21:35.080Z,0.97
2022-09-27T10:24:17.308Z,1.03
2022-09-27T10:27:09.371Z,0.80
2022-09-27T10:29:40.283Z,0.80
2022-09-27T10:32:25.490Z,0.90
2022-09-27T10:35:32.837Z,0.60
2022-09-27T10:38:22.755Z,0.67
2022-09-27T10:40:56.148Z,0.80
2022-09-27T10:43:30.673Z,0.63
2022-09-27T10:46:17.514Z,0.70
2022-09-27T10:48:49.280Z,0.70
2022-09-27T10:51:26.372Z,0.60
2022-09-27T10:53:58.799Z,0.63
2022-09-27T10:56:34.989Z,0.60
2022-09-27T10:59:05.555Z,0.63
2022-09-27T11:01:45.603Z,0.90
2022-09-27T11:04:40.290Z,0.57
2022-09-27T11:07:20.210Z,0.70
2022-09-27T11:10:03.461Z,0.90
2022-09-27T11:12:36.847Z,0.90
2022-09-27T11:15:08.421Z,0.70
2022-09-27T11:17:51.197Z,1.03
2022-09-27T11:20:35.910Z,0.90
2022-09-27T11:23:34.008Z,0.80
2022-09-27T11:26:31.033Z,0.80
2022-09-27T11:29:24.238Z,0.77
2022-09-27T11:32:35.845Z,0.73
2022-09-27T11:35:15.950Z,0.50
2022-09-27T11:37:53.332Z,0.60
2022-09-27T11:40:32.908Z,0.80
2022-09-27T11:43:35.372Z,0.73
2022-09-27T11:46:24.611Z,0.83
2022-09-27T11:49:29.608Z,0.80
2022-09-27T11:52:30.758Z,0.70
2022-09-27T11:55:21.684Z,0.77
2022-09-27T11:58:01.076Z,0.70
2022-09-27T12:00:43.629Z,1.00
2022-09-27T12:03:53.537Z,0.73
2022-09-27T12:06:35.088Z,0.87
2022-09-27T12:09:08.582Z,0.73
2022-09-27T12:11:42.715Z,0.90
2022-09-27T12:14:24.603Z,1.00
2022-09-27T12:16:57.270Z,0.73
2022-09-27T12:19:31.743Z,1.07
2022-09-27T12:22:11.313Z,0.70
2022-09-27T12:24:43.610Z,0.70
2022-09-27T12:27:38.624Z,0.70
2022-09-27T12:30:13.634Z,0.70
2022-09-27T12:32:52.047Z,0.70
2022-09-27T12:35:26.826Z,1.00
2022-09-27T12:38:00.566Z,0.77
2022-09-27T12:40:34.376Z,0.70
2022-09-27T12:43:10.118Z,0.70
2022-09-27T12:46:16.346Z,0.60
2022-09-27T12:48:54.858Z,0.73
2022-09-27T12:51:25.813Z,0.73
2022-09-27T12:54:25.350Z,0.60
2022-09-27T12:57:03.651Z,0.80
2022-09-27T12:59:48.215Z,0.60
2022-09-27T13:03:11.083Z,0.60
2022-09-27T13:06:29.044Z,0.67
2022-09-27T13:09:20.921Z,0.87
2022-09-27T13:12:02.399Z,0.80
2022-09-27T13:14:36.202Z,0.73
2022-09-27T13:17:05.517Z,0.87
2022-09-27T13:19:45.703Z,0.90
2022-09-27T13:22:38.117Z,0.87
2022-09-27T13:25:55.475Z,0.80
2022-09-27T13:29:02.309Z,0.77
2022-09-27T13:32:15.267Z,0.60
2022-09-27T13:35:13.819Z,0.70
2022-09-27T13:37:53.226Z,0.70
2022-09-27T13:40:31.949Z,1.20
2022-09-27T13:43:42.768Z,1.00
2022-09-27T13:46:27.980Z,0.90
2022-09-27T13:49:03.776Z,0.85
2022-09-27T13:52:03.265Z,0.75
2022-09-27T13:54:41.968Z,0.82
2022-09-27T13:57:45.277Z,0.60
2022-09-27T14:00:22.991Z,0.60
2022-09-27T14:03:02.738Z,1.00
2022-09-27T14:05:37.798Z,0.70
2022-09-27T14:08:08.537Z,0.73
2022-09-27T14:10:37.678Z,0.60
2022-09-27T14:13:08.014Z,0.70
2022-09-27T14:15:50.336Z,0.80
2022-09-27T14:18:20.008Z,0.68
2022-09-27T14:20:52.261Z,0.93
2022-09-27T14:23:52.237Z,0.73
2022-09-27T14:26:25.139Z,0.60
2022-09-27T14:28:54.267Z,0.63
2022-09-27T14:31:29.921Z,0.70
2022-09-27T14:34:21.039Z,0.80
2022-09-27T14:37:07.785Z,0.50
2022-09-27T14:39:55.773Z,0.60
2022-09-27T14:42:36.606Z,0.50
2022-09-27T14:45:15.875Z,0.67
2022-09-27T14:47:49.295Z,0.60
2022-09-27T14:50:24.508Z,0.60
2022-09-27T14:52:55.857Z,0.70
2022-09-27T14:55:27.716Z,0.73
2022-09-27T14:57:58.126Z,0.50
2022-09-27T15:00:31.169Z,0.47
2022-09-27T15:03:04.192Z,0.53
2022-09-27T15:05:34.542Z,0.50
2022-09-27T15:08:05.977Z,0.87
2022-09-27T15:10:36.604Z,0.50
2022-09-27T15:13:07.033Z,0.70
2022-09-27T15:15:38.322Z,0.60
2022-09-27T15:18:40.906Z,0.60
2022-09-27T15:21:10.725Z,0.50
2022-09-27T15:23:41.192Z,0.53
2022-09-27T15:26:14.224Z,0.60
2022-09-27T15:28:48.948Z,0.63
2022-09-27T15:31:18.307Z,0.50
2022-09-27T15:33:56.307Z,0.50
2022-09-27T15:36:51.926Z,0.40
2022-09-27T15:39:22.284Z,0.50
2022-09-27T15:42:08.977Z,0.57
2022-09-27T15:44:40.583Z,0.50
2022-09-27T15:47:41.528Z,0.50
2022-09-27T15:50:41.212Z,0.33
2022-09-27T15:53:10.621Z,0.30
2022-09-27T15:55:43.491Z,0.30
2022-09-27T15:58:16.997Z,0.20
2022-09-27T16:00:55.162Z,0.30
2022-09-27T16:03:23.837Z,0.23
2022-09-27T16:05:56.280Z,0.23
2022-09-27T16:08:24.621Z,0.13
2022-09-27T16:10:55.145Z,0.30
2022-09-27T16:13:23.472Z,0.30
2022-09-27T16:15:51.964Z,0.30
2022-09-27T16:18:20.219Z,0.30
2022-09-27T16:20:48.497Z,0.30
2022-09-27T16:23:18.423Z,0.30
2022-09-27T16:25:46.649Z,0.30
2022-09-27T16:28:14.853Z,0.20
2022-09-27T16:30:43.076Z,0.30
2022-09-27T16:33:11.481Z,0.30
2022-09-27T16:35:42.063Z,0.40
2022-09-27T16:38:11.280Z,0.17
2022-09-27T16:40:40.987Z,0.20
2022-09-27T16:43:09.259Z,0.50
2022-09-27T16:45:37.609Z,0.20
2022-09-27T16:48:05.956Z,0.20
2022-09-27T16:50:51.298Z,0.23
2022-09-27T16:53:19.572Z,0.20
2022-09-27T16:55:50.212Z,0.10
2022-09-27T16:58:18.429Z,0.10
2022-09-27T17:00:46.609Z,0.10
2022-09-27T17:03:14.931Z,0.10
2022-09-27T17:05:43.165Z,0.10
2022-09-27T17:08:11.476Z,0.10
2022-09-27T17:10:41.360Z,0.10
2022-09-27T17:13:11.035Z,0.23
2022-09-27T17:15:39.630Z,0.10
2022-09-27T17:18:07.914Z,0.40
2022-09-27T17:20:36.078Z,0.13
2022-09-27T17:23:04.628Z,0.23
2022-09-27T17:25:33.153Z,0.50
2022-09-27T17:28:01.437Z,0.13
2022-09-27T17:30:32.049Z,0.10
2022-09-27T17:33:00.332Z,0.20
2022-09-27T17:35:28.513Z,0.40
2022-09-27T17:37:56.746Z,0.10
2022-09-27T17:40:25.032Z,0.03
2022-09-27T17:42:53.459Z,0.20
2022-09-27T17:45:21.725Z,0.10
2022-09-27T17:48:12.897Z,0.30
2022-09-27T17:50:41.785Z,0.30
2022-09-27T17:53:09.968Z,0.10
2022-09-27T17:55:38.200Z,0.10
2022-09-27T17:58:06.499Z,0.10
2022-09-27T18:00:34.973Z,0.10
2022-09-27T18:03:04.606Z,0.10
2022-09-27T18:05:33.099Z,0.10
2022-09-27T18:08:01.683Z,0.17
2022-09-27T18:10:29.941Z,0.13
2022-09-27T18:12:58.815Z,0.20
2022-09-27T18:15:27.374Z,0.00
2022-09-27T18:17:58.305Z,0.30
2022-09-27T18:20:28.154Z,0.10
2022-09-27T18:22:57.308Z,0.10
2022-09-27T18:25:25.643Z,0.10
2022-09-27T18:27:55.972Z,0.13
2022-09-27T18:30:24.437Z,0.20
2022-09-27T18:32:53.839Z,0.13
2022-09-27T18:35:24.274Z,0.43
2022-09-27T18:37:54.516Z,0.10
2022-09-27T18:40:44.546Z,0.10
2022-09-27T18:43:11.044Z,0.13
2022-09-27T18:45:39.909Z,0.30
2022-09-27T18:48:08.236Z,0.20
2022-09-27T18:50:37.682Z,0.20
2022-09-27T18:53:08.378Z,0.20
2022-09-27T18:55:38.526Z,0.30
2022-09-27T18:58:07.058Z,0.30
2022-09-27T19:00:35.437Z,0.77
2022-09-27T19:03:04.169Z,0.30
2022-09-27T19:05:32.510Z,0.20
2022-09-27T19:08:00.690Z,0.40
2022-09-27T19:10:30.444Z,0.30
2022-09-27T19:12:58.651Z,0.40
2022-09-27T19:15:26.920Z,0.20
2022-09-27T19:17:55.488Z,0.20
2022-09-27T19:20:23.659Z,0.30
2022-09-27T19:22:51.810Z,0.60
2022-09-27T19:25:20.186Z,0.30
2022-09-27T19:27:49.870Z,0.40
2022-09-27T19:30:18.751Z,0.50
2022-09-27T19:32:47.461Z,0.30
2022-09-27T19:35:16.052Z,0.50
2022-09-27T19:37:44.352Z,0.57
2022-09-27T19:40:12.558Z,0.43
2022-09-27T19:42:40.786Z,0.80
2022-09-27T19:45:12.410Z,0.60
2022-09-27T19:47:40.640Z,0.50
2022-09-27T19:50:09.774Z,0.53
2022-09-27T19:52:38.820Z,0.67
2022-09-27T19:55:08.156Z,0.80
2022-09-27T19:57:36.441Z,0.70
2022-09-27T20:00:06.556Z,0.60
2022-09-27T20:02:36.329Z,0.60
2022-09-27T20:05:04.927Z,0.60
2022-09-27T20:07:35.081Z,0.83
2022-09-27T20:10:03.397Z,0.80
2022-09-27T20:12:31.721Z,0.87
2022-09-27T20:14:59.957Z,0.43
2022-09-27T20:17:32.073Z,0.60
2022-09-27T20:20:01.925Z,0.90
2022-09-27T20:22:30.203Z,0.53
2022-09-27T20:24:58.664Z,0.77
2022-09-27T20:27:26.836Z,0.70
2022-09-27T20:29:55.169Z,0.73
2022-09-27T20:32:27.732Z,0.63
2022-09-27T20:34:56.586Z,1.43
2022-09-27T20:37:26.647Z,0.60
2022-09-27T20:39:54.902Z,0.73
2022-09-27T20:42:23.306Z,0.90
2022-09-27T20:44:54.300Z,1.10
2022-09-27T20:47:23.127Z,1.00
2022-09-27T20:49:51.481Z,1.00
2022-09-27T20:52:20.841Z,0.83
2022-09-27T20:54:50.413Z,0.60
2022-09-27T20:57:27.833Z,0.83
2022-09-27T21:00:10.153Z,0.60
2022-09-27T21:02:38.461Z,0.60
2022-09-27T21:05:07.426Z,0.93
2022-09-27T21:07:35.588Z,1.20
2022-09-27T21:10:06.029Z,0.80
2022-09-27T21:12:34.250Z,1.00
2022-09-27T21:15:02.513Z,1.00
2022-09-27T21:17:30.786Z,0.80
2022-09-27T21:19:58.947Z,0.40
2022-09-27T21:22:27.266Z,0.90
2022-09-27T21:24:56.485Z,0.90
2022-09-27T21:27:26.246Z,0.60
2022-09-27T21:29:54.452Z,0.70
2022-09-27T21:32:22.686Z,0.60
2022-09-27T21:34:51.011Z,0.60
2022-09-27T21:37:19.271Z,0.50
2022-09-27T21:39:47.418Z,0.50
2022-09-27T21:42:15.789Z,0.77
2022-09-27T21:44:45.630Z,1.00
2022-09-27T21:47:14.710Z,0.37
2022-09-27T21:49:42.850Z,0.40
2022-09-27T21:52:11.149Z,0.40
2022-09-27T21:54:39.383Z,0.30
2022-09-27T21:57:07.688Z,0.90
2022-09-27T21:59:35.840Z,0.50
2022-09-27T22:02:05.624Z,0.50
2022-09-27T22:04:33.843Z,0.93
2022-09-27T22:07:02.065Z,0.40
2022-09-27T22:09:30.306Z,0.77
2022-09-27T22:11:58.616Z,0.40
2022-09-27T22:14:26.933Z,0.40
2022-09-27T22:16:55.249Z,0.50
2022-09-27T22:19:24.875Z,0.43
2022-09-27T22:21:54.092Z,0.40
2022-09-27T22:24:22.417Z,0.30
2022-09-27T22:26:53.898Z,0.20
2022-09-27T22:29:22.397Z,0.57
2022-09-27T22:31:50.654Z,0.40
2022-09-27T22:34:29.032Z,0.47
2022-09-27T22:37:00.904Z,0.30
2022-09-27T22:39:29.466Z,0.50
2022-09-27T22:41:57.749Z,0.33
2022-09-27T22:44:26.014Z,0.37
2022-09-27T22:46:54.424Z,0.40
2022-09-27T22:49:22.941Z,0.53
2022-09-27T22:51:51.464Z,0.70
2022-09-27T22:54:21.276Z,0.40
2022-09-27T22:56:57.304Z,0.40
2022-09-27T22:59:26.331Z,0.30
2022-09-27T23:01:54.859Z,0.30
2022-09-27T23:04:23.111Z,0.60
2022-09-27T23:06:51.858Z,0.30
2022-09-27T23:09:22.081Z,0.40
2022-09-27T23:11:50.442Z,0.47
2022-09-27T23:14:21.087Z,0.40
2022-09-27T23:16:49.517Z,0.60
2022-09-27T23:19:20.124Z,0.50
2022-09-27T23:21:48.546Z,0.50
2022-09-27T23:24:17.155Z,0.40
2022-09-27T23:27:06.793Z,0.40
2022-09-27T23:29:35.044Z,0.20
2022-09-27T23:32:04.333Z,0.30
2022-09-27T23:34:32.887Z,0.30
2022-09-27T23:37:01.116Z,0.37
2022-09-27T23:39:29.827Z,0.37
2022-09-27T23:41:59.482Z,0.30
2022-09-27T23:44:27.865Z,0.43
2022-09-27T23:47:00.399Z,0.40
2022-09-27T23:49:29.318Z,0.30
2022-09-27T23:51:57.565Z,0.40
2022-09-27T23:54:25.879Z,0.30
2022-09-27T23:56:54.187Z,0.40
2022-09-27T23:59:24.881Z,0.37
